Time;durP1;ratioP1;P1;durP2;ratioP2;P2;SDS_P1;SDS_P2;PMS_P1;PMS_P2;Temp;Humidity;BMP_temperature;BMP_pressure;BME280_temperature;BME280_humidity;BME280_pressure;Samples;Min_cycle;Max_cycle;Signal;HPM_P1;HPM_P2
2022/06/27 06:57:49;;;;;;;93.30;14.30;;;;;;;18.74;80.74;96471.97;2079706;28;20585;-60
2022/06/27 06:58:51;;;;;;;96.22;18.95;;;;;;;18.86;80.41;96482.53;2090498;28;20674;-61
2022/06/27 06:59:52;;;;;;;110.13;41.15;;;;;;;18.78;79.97;96485.81;2085387;28;20197;-61
2022/06/27 07:20:19;;;;;;;94.53;15.60;;;;;;;18.19;82.86;96479.81;2085510;28;20910;-59
2022/06/27 07:21:21;;;;;;;99.40;27.55;;;;;;;18.28;83.14;96472.97;2078542;28;20219;-59
2022/06/27 07:22:23;;;;;;;137.15;92.78;;;;;;;18.31;83.05;96463.97;2071786;28;20567;-59
2022/06/27 07:23:24;;;;;;;108.82;39.10;;;;;;;18.47;82.19;96464.44;2081007;28;20193;-60
2022/06/27 07:24:26;;;;;;;120.05;62.42;;;;;;;18.68;81.69;96466.34;2075306;28;20256;-59
2022/06/27 07:25:28;;;;;;;115.75;53.10;;;;;;;18.87;81.84;96471.81;2072200;28;20194;-59
2022/06/27 07:39:01;;;;;;;93.20;8.93;;;;;;;18.73;79.07;96486.16;2103809;27;20541;-59
2022/06/27 07:40:03;;;;;;;91.40;8.00;;;;;;;18.60;79.03;96504.81;2102833;28;20198;-59
2022/06/27 07:41:06;;;;;;;95.40;10.93;;;;;;;18.32;80.14;96492.94;2102499;28;20352;-59
2022/06/27 07:53:26;;;;;;;87.78;3.42;;;;;;;18.97;76.67;96545.19;2092169;27;20543;-59
2022/06/27 07:54:32;;;;;;;86.93;3.45;;;;;;;18.62;76.62;96527.66;2086497;28;20300;-59
2022/06/27 07:55:34;;;;;;;92.75;3.10;;;;;;;18.69;77.65;96558.78;2086631;28;20567;-59
2022/06/27 08:10:15;;;;;;;93.78;9.45;;;;;;;18.22;79.33;96550.94;2084333;28;20598;-58
2022/06/27 08:11:19;;;;;;;97.57;8.73;;;;;;;18.32;79.32;96543.16;2076340;28;20422;-59
2022/06/27 08:12:21;;;;;;;90.82;8.45;;;;;;;18.30;78.24;96542.44;2065011;28;20201;-59
2022/06/27 08:21:37;;;;;;;90.82;6.53;;;;;;;18.74;77.59;96561.03;2084195;28;20540;-59
2022/06/27 08:22:39;;;;;;;94.65;12.00;;;;;;;18.99;77.28;96567.91;2073770;28;20223;-59
2022/06/27 08:23:41;;;;;;;92.15;8.02;;;;;;;19.23;75.82;96558.97;2090836;28;20188;-59
2022/06/27 08:24:44;;;;;;;95.97;5.50;;;;;;;19.14;75.71;96559.72;2082567;28;20212;-59
2022/06/27 08:25:47;;;;;;;88.97;5.32;;;;;;;19.45;74.98;96563.31;2077920;28;20201;-59
2022/06/27 08:26:49;;;;;;;91.32;5.75;;;;;;;19.52;74.20;96553.91;2077829;28;20204;-59
2022/06/27 08:27:51;;;;;;;89.28;5.45;;;;;;;19.14;74.41;96539.38;2075778;28;20228;-59
2022/06/27 08:28:53;;;;;;;91.43;3.97;;;;;;;19.31;75.54;96563.63;2073423;28;20202;-59
2022/06/27 08:29:55;;;;;;;88.70;4.82;;;;;;;19.32;75.01;96568.78;2073278;28;20198;-59
2022/06/27 08:31:00;;;;;;;89.35;4.68;;;;;;;19.56;74.96;96549.22;2075248;28;20251;-59
2022/06/27 08:32:02;;;;;;;88.25;5.35;;;;;;;20.00;73.45;96579.16;2078258;28;20650;-59
2022/06/27 08:33:04;;;;;;;88.90;5.30;;;;;;;20.08;73.92;96575.84;2081766;28;20224;-59
2022/06/27 08:34:06;;;;;;;90.93;5.32;;;;;;;20.41;73.02;96576.59;2091164;28;20203;-59
2022/06/27 08:35:08;;;;;;;130.88;80.57;;;;;;;19.99;72.19;96571.34;2074650;28;20201;-59
2022/06/27 09:24:05;;;;;;;93.45;16.50;;;;;;;18.27;82.74;96619.28;2106738;27;20562;-59
2022/06/27 09:35:22;;;;;;;93.70;15.38;;;;;;;18.51;81.46;96606.03;2108384;27;20540;-59
2022/06/27 09:36:27;;;;;;;97.00;27.15;;;;;;;18.55;81.26;96607.47;2109322;28;20191;-59
2022/06/27 09:37:28;;;;;;;93.60;25.40;;;;;;;18.69;80.51;96587.00;2100135;27;20221;-59
2022/06/27 09:38:31;;;;;;;100.90;32.28;;;;;;;18.87;80.14;96601.44;2114715;28;20206;-59
2022/06/27 09:39:35;;;;;;;101.63;36.20;;;;;;;18.96;79.63;96599.03;2108099;28;20718;-61
2022/06/27 09:40:39;;;;;;;102.68;25.70;;;;;;;19.09;78.62;96608.53;2096200;28;20198;-59
2022/06/27 09:41:41;;;;;;;108.97;38.60;;;;;;;19.01;78.84;96608.31;2097847;28;20199;-59
2022/06/27 09:42:46;;;;;;;96.57;15.65;;;;;;;19.40;77.59;96600.78;2098867;27;20214;-59
2022/06/27 09:43:49;;;;;;;92.57;10.57;;;;;;;19.61;76.61;96601.81;2117192;28;20200;-59
2022/06/27 09:44:51;;;;;;;92.85;6.20;;;;;;;19.96;75.46;96606.88;2102828;28;20702;-59
2022/06/27 09:45:53;;;;;;;95.95;5.90;;;;;;;19.99;74.43;96603.94;2097040;28;20195;-59
2022/06/27 09:47:04;;;;;;;90.90;5.88;;;;;;;20.33;73.86;96611.72;2100046;28;20654;-59
2022/06/27 09:48:07;;;;;;;88.93;6.85;;;;;;;20.48;72.92;96614.88;2099782;28;20290;-60
2022/06/27 09:49:14;;;;;;;89.00;8.27;;;;;;;20.44;72.37;96620.56;2099986;28;20203;-59
2022/06/27 09:50:16;;;;;;;88.53;6.97;;;;;;;20.30;73.39;96629.69;2100696;28;20598;-59
2022/06/27 09:51:18;;;;;;;95.72;16.55;;;;;;;20.35;72.52;96638.09;2098254;28;20195;-59
2022/06/27 09:52:23;;;;;;;121.70;53.03;;;;;;;20.23;71.85;96618.78;2092256;28;20196;-59
2022/06/27 09:53:27;;;;;;;105.05;34.85;;;;;;;20.49;72.15;96632.50;2116618;28;20186;-59
2022/06/27 09:54:29;;;;;;;128.20;78.15;;;;;;;20.62;71.65;96640.22;2110532;28;20628;-59
2022/06/27 09:55:32;;;;;;;98.55;18.33;;;;;;;20.75;72.62;96634.75;2099872;28;20557;-59
2022/06/27 09:56:35;;;;;;;128.18;65.68;;;;;;;20.80;71.45;96640.47;2099786;28;20554;-59
2022/06/27 09:57:38;;;;;;;139.30;92.75;;;;;;;20.94;71.35;96641.09;2097160;28;20213;-59
2022/06/27 09:58:41;;;;;;;127.30;78.95;;;;;;;21.08;71.42;96640.75;2106932;28;20191;-60
2022/06/27 10:00:06;;;;;;;127.00;85.60;;;;;;;20.94;71.31;96644.59;2100573;28;20306;-59
2022/06/27 10:01:09;;;;;;;117.75;71.95;;;;;;;20.88;70.82;96650.44;2098519;28;20230;-59
2022/06/27 10:02:17;;;;;;;111.43;47.53;;;;;;;20.88;70.85;96632.69;2089695;27;20236;-61
2022/06/27 10:03:20;;;;;;;88.57;18.38;;;;;;;20.83;70.63;96628.75;2118224;28;20213;-59
2022/06/27 10:04:25;;;;;;;88.40;15.77;;;;;;;21.02;69.84;96635.97;2109734;28;20202;-60
2022/06/27 10:05:27;;;;;;;91.10;20.58;;;;;;;21.34;69.70;96653.53;2098568;28;20199;-60
2022/06/27 10:06:29;;;;;;;118.78;67.55;;;;;;;21.41;69.97;96661.78;2100086;28;20202;-60
2022/06/27 10:07:31;;;;;;;85.80;13.13;;;;;;;21.32;69.67;96666.94;2100036;28;20218;-60
2022/06/27 10:08:35;;;;;;;86.82;17.05;;;;;;;21.37;69.54;96662.06;2099527;28;20192;-60
2022/06/27 10:09:37;;;;;;;86.85;7.68;;;;;;;21.60;68.24;96671.66;2098157;28;20282;-60
2022/06/27 10:11:00;;;;;;;86.53;14.05;;;;;;;21.39;69.46;96677.03;2100519;28;20215;-61
2022/06/27 10:12:25;;;;;;;84.72;9.90;;;;;;;21.12;68.75;96650.09;2099325;28;20551;-61
2022/06/27 10:13:29;;;;;;;86.20;5.13;;;;;;;21.17;68.46;96686.88;2097923;28;20224;-61
2022/06/27 10:14:32;;;;;;;94.75;3.65;;;;;;;20.86;69.62;96686.88;2097824;28;20574;-61
2022/06/27 10:15:38;;;;;;;86.15;9.50;;;;;;;21.13;69.84;96690.78;2098485;28;20282;-60
2022/06/27 10:17:00;;;;;;;93.15;11.02;;;;;;;21.03;69.28;96701.34;2097972;28;20581;-61
2022/06/27 10:18:02;;;;;;;88.13;3.90;;;;;;;20.86;69.45;96698.34;2102086;28;20241;-60
2022/06/27 10:31:17;;;;;;;90.70;8.65;;;;;;;21.05;66.77;96691.44;2083849;28;20572;-60
2022/06/27 10:32:46;;;;;;;94.90;16.08;;;;;;;21.21;66.54;96705.06;2066127;28;20309;-60
2022/06/27 10:33:50;;;;;;;94.15;19.13;;;;;;;21.60;65.92;96699.06;2083598;28;20590;-60
2022/06/27 10:34:54;;;;;;;87.97;4.18;;;;;;;21.54;64.00;96702.22;2076408;28;20194;-60
2022/06/27 10:35:57;;;;;;;90.43;10.70;;;;;;;21.62;65.03;96697.13;2075435;28;20204;-60
2022/06/27 10:37:26;;;;;;;88.90;3.67;;;;;;;21.46;65.23;96692.28;2076310;28;20254;-60
2022/06/27 10:38:42;;;;;;;87.05;3.17;;;;;;;21.36;66.24;96691.44;2075836;28;20307;-60
2022/06/27 10:39:44;;;;;;;92.05;5.95;;;;;;;21.38;63.85;96689.44;2075261;28;20483;-60
2022/06/27 10:41:09;;;;;;;97.95;9.68;;;;;;;21.34;63.53;96688.91;2076036;28;20284;-61
2022/06/27 10:42:44;;;;;;;94.38;7.75;;;;;;;21.24;65.71;96695.97;2066363;28;20209;-60
2022/06/27 10:43:47;;;;;;;92.00;2.70;;;;;;;21.17;66.25;96698.34;2084297;28;20200;-61
2022/06/27 10:44:49;;;;;;;88.15;2.60;;;;;;;21.12;65.72;96694.41;2078705;28;20201;-61
2022/06/27 10:45:50;;;;;;;86.78;2.55;;;;;;;21.46;65.22;96697.59;2077448;28;20633;-61
2022/06/27 10:46:52;;;;;;;86.10;2.50;;;;;;;21.85;64.99;96707.50;2076678;28;20675;-61
2022/06/27 10:47:58;;;;;;;86.97;2.80;;;;;;;21.88;63.13;96701.06;2083384;28;20261;-61
2022/06/27 10:48:59;;;;;;;84.82;3.00;;;;;;;21.89;64.18;96700.94;2082296;28;20212;-61
2022/06/27 10:50:11;;;;;;;86.35;2.97;;;;;;;21.75;64.53;96682.72;2076320;28;20197;-61
2022/06/27 10:51:29;;;;;;;88.18;3.67;;;;;;;22.01;64.16;96705.13;2077338;28;20720;-61
2022/06/27 10:52:31;;;;;;;88.07;2.83;;;;;;;21.90;64.26;96699.94;2070485;28;20303;-61
2022/06/27 10:53:32;;;;;;;86.63;3.80;;;;;;;21.98;63.96;96702.78;2078058;28;20204;-61
2022/06/27 10:54:38;;;;;;;87.15;4.15;;;;;;;22.08;63.83;96699.25;2078001;28;20193;-61
2022/06/27 10:55:40;;;;;;;85.80;2.90;;;;;;;22.31;63.48;96705.16;2075282;28;20668;-61
2022/06/27 10:56:46;;;;;;;85.65;3.40;;;;;;;22.40;63.42;96699.03;2076248;28;20193;-61
2022/06/27 10:57:48;;;;;;;86.60;4.95;;;;;;;22.37;62.97;96693.16;2070475;28;20845;-61
2022/06/27 10:58:49;;;;;;;89.53;4.43;;;;;;;22.26;62.61;96702.06;2082566;28;20471;-61
2022/06/27 10:59:54;;;;;;;84.15;3.17;;;;;;;21.92;64.96;96705.97;2078465;28;20198;-61
2022/06/27 11:01:13;;;;;;;84.45;3.65;;;;;;;22.13;64.44;96711.19;2076116;28;20232;-61
2022/06/27 11:02:18;;;;;;;86.05;4.35;;;;;;;21.97;63.69;96718.88;2066984;28;20189;-61
2022/06/27 11:03:23;;;;;;;85.93;3.08;;;;;;;22.06;63.72;96709.22;2084942;28;20188;-62
2022/06/27 11:04:36;;;;;;;84.40;3.45;;;;;;;22.37;62.62;96722.41;2081940;28;20205;-62
2022/06/27 11:05:55;;;;;;;87.53;4.30;;;;;;;22.52;62.33;96715.66;2075520;28;20201;-62
2022/06/27 11:07:02;;;;;;;85.35;2.95;;;;;;;22.63;62.10;96715.53;2075038;28;20660;-61
2022/06/27 11:08:04;;;;;;;85.40;3.88;;;;;;;22.67;61.76;96714.25;2076092;28;20766;-61
2022/06/27 11:09:05;;;;;;;83.18;3.05;;;;;;;22.85;62.77;96720.66;2076280;28;20205;-62
2022/06/27 11:10:08;;;;;;;89.65;6.15;;;;;;;23.41;60.14;96729.63;2073656;28;20645;-62
2022/06/27 11:11:22;;;;;;;87.32;5.85;;;;;;;23.56;59.07;96727.31;2075322;28;20665;-62
2022/06/27 11:12:28;;;;;;;90.30;6.85;;;;;;;23.60;58.87;96705.56;2066920;28;20692;-62
2022/06/27 11:13:41;;;;;;;87.57;6.10;;;;;;;23.64;59.41;96722.94;2083628;28;20232;-62
2022/06/27 11:14:58;;;;;;;88.10;4.80;;;;;;;23.44;60.63;96732.00;2073706;28;20193;-60
2022/06/27 11:15:59;;;;;;;94.85;5.22;;;;;;;23.37;60.12;96726.41;2076435;28;20627;-60
2022/06/27 11:17:00;;;;;;;92.40;5.10;;;;;;;23.43;59.90;96731.16;2074848;28;20210;-60
2022/06/27 11:18:08;;;;;;;89.95;3.78;;;;;;;22.73;61.02;96714.66;2073817;28;20294;-60
2022/06/27 11:20:30;;;;;;;89.75;6.28;;;;;;;22.90;61.47;96731.72;2077866;28;20216;-60
2022/06/27 11:21:40;;;;;;;87.68;4.82;;;;;;;23.37;61.59;96729.06;2075898;28;20193;-60
2022/06/27 11:22:43;;;;;;;88.80;5.00;;;;;;;23.16;61.25;96729.31;2069045;28;20225;-60
2022/06/27 11:23:58;;;;;;;89.05;5.88;;;;;;;23.17;62.15;96725.63;2083510;28;20670;-59
2022/06/27 11:25:01;;;;;;;89.95;5.28;;;;;;;22.92;62.13;96716.44;2075096;28;20203;-59
2022/06/27 11:26:04;;;;;;;90.05;4.03;;;;;;;22.97;60.76;96723.03;2074266;28;20193;-59
2022/06/27 11:27:05;;;;;;;91.28;4.45;;;;;;;23.02;61.23;96727.06;2073955;28;20235;-60
2022/06/27 11:32:15;;;;;;;89.38;5.20;;;;;;;22.25;63.06;96733.16;2066175;28;20254;-60
2022/06/27 11:33:19;;;;;;;89.15;5.00;;;;;;;22.46;63.02;96730.38;2082287;28;20197;-60
2022/06/27 11:34:21;;;;;;;97.28;3.03;;;;;;;22.05;61.99;96718.16;2081224;28;20651;-60
2022/06/27 11:35:23;;;;;;;90.95;6.60;;;;;;;21.94;63.63;96725.28;2076467;28;20202;-60
2022/06/27 11:36:25;;;;;;;89.53;5.30;;;;;;;21.61;64.13;96729.13;2075864;28;20653;-60
2022/06/27 11:37:29;;;;;;;91.85;6.22;;;;;;;21.67;63.67;96733.91;2068994;28;20233;-60
2022/06/27 11:38:41;;;;;;;92.18;6.60;;;;;;;21.64;64.26;96731.53;2083002;28;20195;-61
2022/06/27 11:39:58;;;;;;;88.13;5.70;;;;;;;21.65;63.44;96730.56;2078786;28;20201;-60
2022/06/27 11:41:06;;;;;;;90.40;5.60;;;;;;;21.97;63.00;96726.84;2075381;28;20712;-60
2022/06/27 11:42:12;;;;;;;103.25;14.27;;;;;;;22.11;62.55;96726.44;2064085;28;20197;-60
2022/06/27 11:43:13;;;;;;;109.72;15.65;;;;;;;22.27;61.84;96731.19;2068926;28;20333;-60
2022/06/27 11:44:15;;;;;;;92.07;6.90;;;;;;;22.26;62.33;96718.03;2069779;28;20673;-59
2022/06/27 11:45:16;;;;;;;87.00;4.30;;;;;;;22.01;63.32;96730.91;2070868;28;20194;-60
2022/06/27 11:56:22;;;;;;;90.00;2.72;;;;;;;20.71;66.83;96742.09;2086529;28;20552;-60
2022/06/27 11:57:33;;;;;;;88.43;3.20;;;;;;;21.01;66.33;96743.09;2071705;28;20197;-59
2022/06/27 11:58:50;;;;;;;89.25;3.55;;;;;;;20.93;66.12;96724.34;2081233;28;20193;-59
2022/06/27 11:59:54;;;;;;;89.28;3.72;;;;;;;21.23;65.66;96744.78;2073817;28;20202;-61
2022/06/27 12:01:08;;;;;;;87.05;2.35;;;;;;;21.23;64.82;96741.25;2068789;28;20194;-60
2022/06/27 12:02:09;;;;;;;89.28;3.13;;;;;;;20.92;64.87;96739.41;2063835;28;20192;-60
2022/06/27 12:03:12;;;;;;;92.10;2.75;;;;;;;21.00;65.61;96750.22;2082269;28;20197;-59
2022/06/27 12:04:16;;;;;;;89.72;3.25;;;;;;;21.27;64.64;96746.19;2082971;28;20639;-61
2022/06/27 12:05:20;;;;;;;87.93;3.00;;;;;;;21.03;64.89;96741.16;2068680;28;20220;-61
2022/06/27 12:06:21;;;;;;;87.32;2.95;;;;;;;20.99;65.55;96745.91;2070920;28;20708;-60
2022/06/27 12:07:23;;;;;;;87.78;2.70;;;;;;;21.22;65.21;96735.13;2074087;28;20217;-60
2022/06/27 12:08:24;;;;;;;87.65;2.95;;;;;;;21.25;65.22;96736.66;2073489;28;20829;-60
2022/06/27 12:09:27;;;;;;;88.18;3.22;;;;;;;21.14;64.19;96732.25;2073167;28;20206;-60
2022/06/27 12:10:35;;;;;;;88.80;3.40;;;;;;;21.13;65.54;96734.09;2075796;28;20194;-59
2022/06/27 12:11:37;;;;;;;89.32;3.20;;;;;;;21.58;65.36;96732.88;2075963;28;20193;-59
2022/06/27 12:12:44;;;;;;;86.75;2.58;;;;;;;21.62;63.88;96734.31;2061825;28;20221;-59
2022/06/27 12:13:45;;;;;;;86.65;3.03;;;;;;;21.98;62.06;96747.97;2065118;28;20206;-60
2022/06/27 12:14:49;;;;;;;88.03;2.88;;;;;;;22.47;60.79;96739.19;2061796;28;20203;-59
2022/06/27 12:15:58;;;;;;;85.85;2.88;;;;;;;22.75;60.95;96739.31;2071921;28;20212;-60
2022/06/27 12:17:00;;;;;;;88.00;3.60;;;;;;;22.35;61.83;96735.81;2072212;28;20194;-60
2022/06/27 12:18:03;;;;;;;90.38;6.90;;;;;;;22.30;60.48;96744.22;2067730;28;20221;-59
2022/06/27 12:19:10;;;;;;;92.93;8.18;;;;;;;21.92;60.87;96753.00;2078675;28;20203;-59
2022/06/27 12:20:12;;;;;;;91.63;8.70;;;;;;;21.59;61.89;96734.56;2074205;28;20212;-60
2022/06/27 12:21:13;;;;;;;87.60;3.40;;;;;;;21.70;63.47;96744.28;2074242;28;20202;-60
2022/06/27 12:22:21;;;;;;;88.18;3.53;;;;;;;21.55;63.70;96746.47;2064749;28;20212;-60
2022/06/27 12:23:42;;;;;;;86.53;3.15;;;;;;;21.40;64.32;96743.28;2082631;28;20197;-60
2022/06/27 12:24:45;;;;;;;91.22;6.30;;;;;;;21.15;63.43;96724.19;2076185;28;20204;-59
2022/06/27 12:25:46;;;;;;;89.68;3.08;;;;;;;21.44;64.51;96749.19;2073899;28;20193;-60
2022/06/27 12:38:27;;;;;;;90.28;2.75;;;;;;;20.17;66.38;96741.22;2086095;28;21150;-59
2022/06/27 12:39:29;;;;;;;92.03;2.90;;;;;;;19.97;66.15;96722.50;2081522;28;20199;-59
2022/06/27 12:40:30;;;;;;;88.97;2.90;;;;;;;20.15;67.55;96757.25;2084580;28;20196;-64
2022/06/27 12:49:42;;;;;;;98.50;10.80;;;;;;;19.82;68.01;96745.78;2077893;27;1230433;-59
2022/06/27 12:50:44;;;;;;;97.18;20.52;;;;;;;19.81;68.21;96740.59;2113660;28;20190;-59
2022/06/27 12:51:47;;;;;;;93.30;13.05;;;;;;;19.99;67.31;96757.66;2113979;27;20229;-60
2022/06/27 12:52:49;;;;;;;95.22;24.10;;;;;;;19.96;68.30;96762.34;2086219;28;20250;-60
2022/06/27 12:53:53;;;;;;;95.20;17.13;;;;;;;20.02;67.92;96756.56;2087840;28;20632;-61
2022/06/27 12:54:57;;;;;;;91.28;14.10;;;;;;;20.05;67.74;96756.34;2091496;28;20196;-62
2022/06/27 12:56:01;;;;;;;91.50;8.77;;;;;;;20.08;67.50;96756.06;2091617;28;20196;-61
2022/06/27 12:57:06;;;;;;;92.53;16.90;;;;;;;20.21;67.10;96745.31;2089446;28;20210;-62
2022/06/27 12:58:08;;;;;;;90.03;5.55;;;;;;;20.27;66.89;96758.06;2086030;28;20224;-61
2022/06/27 12:59:09;;;;;;;94.25;17.65;;;;;;;20.59;66.63;96764.31;2091132;28;20206;-61
2022/06/27 13:00:11;;;;;;;92.03;14.55;;;;;;;20.86;66.14;96759.38;2089914;28;20569;-61
2022/06/27 13:01:13;;;;;;;94.82;20.67;;;;;;;21.03;65.41;96742.00;2091151;28;20200;-61
2022/06/27 13:02:16;;;;;;;92.32;3.15;;;;;;;21.06;65.15;96748.03;2083810;28;20230;-62
2022/06/27 13:03:18;;;;;;;88.70;2.70;;;;;;;21.23;64.42;96758.03;2099399;28;20282;-61
2022/06/27 13:04:19;;;;;;;87.15;2.75;;;;;;;21.08;63.54;96749.56;2095773;28;20726;-62
2022/06/27 13:05:21;;;;;;;97.00;2.70;;;;;;;21.24;63.19;96750.91;2091783;28;20238;-62
2022/06/27 13:06:22;;;;;;;87.57;3.08;;;;;;;21.51;63.23;96751.16;2090641;28;20199;-61
2022/06/27 13:07:24;;;;;;;90.82;3.25;;;;;;;21.94;61.87;96756.34;2087896;28;20196;-62
2022/06/27 13:08:25;;;;;;;86.38;2.50;;;;;;;21.84;61.55;96759.00;2089735;28;20660;-61
2022/06/27 13:09:27;;;;;;;85.97;2.75;;;;;;;21.88;61.94;96752.41;2090575;28;20833;-61
2022/06/27 13:10:28;;;;;;;86.00;3.03;;;;;;;22.14;61.42;96760.72;2091951;28;20666;-61
2022/06/27 13:11:30;;;;;;;90.60;5.80;;;;;;;22.10;60.89;96759.31;2091953;28;20231;-62
2022/06/27 13:12:31;;;;;;;90.78;3.75;;;;;;;21.84;59.34;96751.03;2089050;28;20218;-62
2022/06/27 13:13:34;;;;;;;93.20;6.18;;;;;;;21.96;59.49;96757.88;2107155;28;20191;-62
2022/06/27 13:14:36;;;;;;;96.47;5.88;;;;;;;21.92;59.77;96759.13;2103644;28;20195;-63
2022/06/27 13:15:38;;;;;;;92.40;6.70;;;;;;;21.76;60.32;96762.31;2101716;28;20198;-63
2022/06/27 13:26:54;;;;;;;90.43;4.00;;;;;;;21.74;60.71;96751.00;2102636;27;21079;-64
2022/06/27 13:27:56;;;;;;;92.57;3.50;;;;;;;21.61;61.76;96753.88;2084058;27;20220;-64
2022/06/27 13:28:57;;;;;;;87.55;2.67;;;;;;;21.52;62.48;96742.22;2100254;28;20254;-63
2022/06/27 13:29:59;;;;;;;87.00;2.60;;;;;;;21.68;62.06;96752.34;2093825;28;20565;-61
2022/06/27 13:31:00;;;;;;;88.50;2.50;;;;;;;21.64;62.60;96739.50;2081755;28;20197;-62
2022/06/27 13:32:02;;;;;;;88.75;2.92;;;;;;;21.71;62.10;96758.38;2082230;28;20266;-62
2022/06/27 13:33:05;;;;;;;87.93;3.92;;;;;;;21.60;61.68;96752.22;2096285;28;20246;-62
2022/06/27 13:34:06;;;;;;;87.88;3.95;;;;;;;21.59;61.33;96763.81;2101695;28;20329;-63
2022/06/27 13:35:28;;;;;;;90.45;5.45;;;;;;;21.40;61.81;96739.81;2090526;28;20208;-63
2022/06/27 13:36:29;;;;;;;90.07;6.10;;;;;;;21.62;61.72;96754.72;2091483;28;20787;-63
2022/06/27 13:37:31;;;;;;;91.32;5.75;;;;;;;21.57;60.83;96760.44;2086580;28;20214;-64
2022/06/27 13:38:32;;;;;;;91.68;7.40;;;;;;;21.77;60.88;96757.84;2108434;28;20758;-64
2022/06/27 13:39:34;;;;;;;91.63;4.55;;;;;;;21.50;61.54;96773.38;2099524;28;20774;-63
2022/06/27 13:40:35;;;;;;;96.20;5.93;;;;;;;21.39;62.29;96775.31;2088169;28;20195;-63
2022/06/27 13:41:37;;;;;;;95.55;6.43;;;;;;;21.49;62.13;96768.22;2088855;28;20208;-63
2022/06/27 13:42:38;;;;;;;91.22;5.95;;;;;;;21.75;62.65;96767.75;2088216;28;20236;-63
2022/06/27 13:43:40;;;;;;;88.57;6.20;;;;;;;21.94;61.25;96767.81;2104989;28;20227;-63
2022/06/27 13:44:42;;;;;;;90.43;7.10;;;;;;;22.29;60.93;96774.44;2092187;28;20235;-63
2022/06/27 13:45:43;;;;;;;93.95;7.63;;;;;;;22.56;59.32;96780.09;2086442;28;20200;-63
2022/06/27 13:46:44;;;;;;;90.53;5.00;;;;;;;22.73;58.79;96778.53;2087120;28;20675;-62
2022/06/27 13:47:46;;;;;;;91.65;3.38;;;;;;;22.93;57.48;96774.88;2086513;28;20219;-63
2022/06/27 13:48:47;;;;;;;91.75;2.70;;;;;;;22.62;57.57;96776.88;2087957;28;20200;-63
2022/06/27 13:49:50;;;;;;;89.95;4.80;;;;;;;22.67;59.25;96767.47;2089015;28;20686;-62
2022/06/27 13:50:51;;;;;;;90.60;3.10;;;;;;;22.79;58.01;96746.03;2088240;28;20262;-62
2022/06/27 13:51:53;;;;;;;91.35;4.80;;;;;;;23.04;58.16;96759.72;2089820;28;20844;-62
2022/06/27 13:52:56;;;;;;;98.03;3.00;;;;;;;22.77;58.51;96778.09;2093241;28;20225;-62
2022/06/27 13:53:57;;;;;;;91.18;3.53;;;;;;;23.00;58.76;96781.28;2106051;28;20199;-61
2022/06/27 13:54:59;;;;;;;93.32;3.33;;;;;;;22.45;58.77;96781.09;2092317;28;20197;-63
2022/06/27 14:07:57;;;;;;;90.63;4.20;;;;;;;21.52;60.50;96750.19;2076918;28;20586;-61
2022/06/27 14:08:58;;;;;;;91.10;4.60;;;;;;;21.70;60.40;96762.88;2070437;28;20190;-61
2022/06/27 14:10:00;;;;;;;91.30;4.70;;;;;;;21.64;60.44;96756.25;2070701;28;20202;-61
2022/06/27 14:11:02;;;;;;;96.07;6.15;;;;;;;21.79;60.51;96763.88;2070334;28;20189;-62
2022/06/27 14:20:29;;;;;;;89.03;3.20;;;;;;;21.91;65.46;96769.91;2084787;28;21074;-61
2022/06/27 14:21:31;;;;;;;89.47;3.08;;;;;;;21.15;65.88;96773.78;2078732;28;20204;-61
2022/06/27 14:22:32;;;;;;;89.55;3.08;;;;;;;21.22;66.47;96756.34;2068460;28;20228;-61
2022/06/27 14:23:34;;;;;;;86.72;2.50;;;;;;;21.78;64.90;96765.69;2078271;28;20291;-62
2022/06/27 14:24:35;;;;;;;86.65;2.70;;;;;;;22.02;64.77;96778.59;2074523;28;20202;-61
2022/06/27 14:25:37;;;;;;;91.00;2.90;;;;;;;21.89;65.22;96774.50;2070682;28;20198;-62
2022/06/27 14:38:33;;;;;;;89.05;3.20;;;;;;;20.81;64.96;96797.88;2084499;28;20547;-61
2022/06/27 14:47:30;;;;;;;90.00;3.17;;;;;;;20.50;66.49;96816.31;2097998;27;20567;-61
2022/06/27 14:53:10;;;;;;;95.70;8.32;;;;;;;20.70;66.60;96791.66;2092430;27;20550;-61
2022/06/27 14:54:12;;;;;;;93.50;3.40;;;;;;;20.79;65.76;96800.66;2090569;28;20694;-61
2022/06/27 14:55:13;;;;;;;93.75;7.63;;;;;;;20.98;66.26;96799.94;2092511;28;20662;-61
2022/06/27 14:56:14;;;;;;;91.43;6.97;;;;;;;20.87;66.44;96794.69;2089229;28;20780;-61
2022/06/27 14:57:16;;;;;;;90.80;3.20;;;;;;;20.85;65.74;96786.03;2080315;28;20196;-61
2022/06/27 14:58:17;;;;;;;90.30;4.68;;;;;;;21.07;66.13;96797.50;2091458;28;20207;-61
2022/06/27 14:59:19;;;;;;;89.22;3.30;;;;;;;21.30;65.23;96791.03;2087737;28;20192;-61
2022/06/27 15:00:20;;;;;;;90.30;7.45;;;;;;;21.33;65.97;96795.25;2073318;28;20886;-61
2022/06/27 15:01:29;;;;;;;88.82;3.00;;;;;;;21.14;65.08;96795.97;2071939;28;20193;-61
2022/06/27 15:02:30;;;;;;;89.90;2.80;;;;;;;21.40;65.16;96809.69;2076958;28;20250;-62
2022/06/27 15:03:32;;;;;;;91.55;2.78;;;;;;;21.49;65.29;96802.75;2083130;28;20201;-61
2022/06/27 15:13:09;;;;;;;88.78;2.90;;;;;;;21.40;65.29;96785.78;2084876;28;20560;-61
2022/06/27 15:14:12;;;;;;;91.00;2.95;;;;;;;21.25;62.71;96787.13;2082296;28;20200;-61
2022/06/27 15:15:15;;;;;;;89.40;2.70;;;;;;;21.11;64.75;96799.75;2082410;28;20279;-62
2022/06/27 15:16:16;;;;;;;90.38;3.40;;;;;;;21.13;64.61;96797.81;2082609;28;20197;-61
2022/06/27 15:17:18;;;;;;;86.68;2.65;;;;;;;21.07;65.11;96793.00;2066279;28;20201;-61
2022/06/27 15:18:20;;;;;;;87.50;2.65;;;;;;;21.13;63.99;96787.19;2078180;28;20205;-61
2022/06/27 15:19:24;;;;;;;86.72;2.53;;;;;;;21.21;63.90;96771.44;2074785;28;20205;-62
2022/06/27 15:20:25;;;;;;;86.43;3.22;;;;;;;21.30;64.03;96777.75;2068949;28;20206;-62
2022/06/27 15:21:27;;;;;;;89.38;2.85;;;;;;;21.10;64.41;96779.47;2071216;28;20674;-61
2022/06/27 15:22:48;;;;;;;87.20;2.50;;;;;;;21.19;64.64;96769.88;2072027;28;20229;-62
2022/06/27 15:23:50;;;;;;;85.90;3.25;;;;;;;21.25;65.26;96769.34;2074528;28;20201;-62
2022/06/27 15:44:13;;;;;;;100.28;20.92;;;;;;;20.45;71.26;96792.81;2092605;27;20573;-60
2022/06/27 15:45:24;;;;;;;110.25;32.53;;;;;;;20.52;71.13;96801.13;2090139;28;20188;-62
2022/06/27 15:46:25;;;;;;;97.97;13.10;;;;;;;20.52;74.00;96796.66;2103259;28;20198;-58
2022/06/27 15:47:27;;;;;;;94.18;11.25;;;;;;;20.47;74.39;96788.22;2090856;28;20302;-58
2022/06/27 15:48:29;;;;;;;98.43;14.27;;;;;;;20.55;73.38;96792.91;2086256;28;20197;-59
2022/06/27 15:58:27;;;;;;;88.50;6.85;;;;;;;20.69;73.79;96786.44;2116628;27;20557;-60
2022/06/27 15:59:28;;;;;;;104.07;18.23;;;;;;;20.56;73.40;96790.13;2117376;28;20198;-61
2022/06/27 16:59:36;;;;;;;93.13;6.60;;;;;;;18.48;76.59;96859.22;2106359;27;21058;-62
2022/06/27 17:04:48;;;;;;;90.95;3.80;;;;;;;19.21;72.40;96875.84;2082435;28;20540;-62
2022/06/27 17:05:50;;;;;;;89.97;6.25;;;;;;;19.54;72.82;96875.06;2084384;28;20196;-62
2022/06/27 17:06:51;;;;;;;94.38;10.60;;;;;;;19.86;72.91;96865.63;2083107;28;20193;-63
2022/06/27 17:07:53;;;;;;;93.03;10.88;;;;;;;20.04;71.60;96858.84;2049860;28;20612;-63
2022/06/27 17:14:48;;;;;;;87.05;4.53;;;;;;;20.04;71.17;96887.16;2082138;28;20592;-63
